sensor_id;sensor_type;location;lat;lon;timestamp;temperature;humidity
34776;DHT22;20989;52.566;13.346;2023-05-07T00:02:46;21.20;45.90
34776;DHT22;20989;52.566;13.346;2023-05-07T00:05:47;21.20;45.90
34776;DHT22;20989;52.566;13.346;2023-05-07T00:08:48;21.20;45.80
34776;DHT22;20989;52.566;13.346;2023-05-07T00:11:49;21.20;45.90
34776;DHT22;20989;52.566;13.346;2023-05-07T00:14:49;21.20;45.90
34776;DHT22;20989;52.566;13.346;2023-05-07T00:17:50;21.20;46.00
34776;DHT22;20989;52.566;13.346;2023-05-07T00:20:51;21.20;46.00
34776;DHT22;20989;52.566;13.346;2023-05-07T00:23:52;21.20;46.00
34776;DHT22;20989;52.566;13.346;2023-05-07T00:26:53;21.20;45.90
34776;DHT22;20989;52.566;13.346;2023-05-07T00:29:53;21.20;46.00
34776;DHT22;20989;52.566;13.346;2023-05-07T00:32:54;21.20;45.90
34776;DHT22;20989;52.566;13.346;2023-05-07T00:35:55;21.20;45.90
34776;DHT22;20989;52.566;13.346;2023-05-07T00:38:57;21.20;45.90
34776;DHT22;20989;52.566;13.346;2023-05-07T00:41:59;21.20;46.00
34776;DHT22;20989;52.566;13.346;2023-05-07T00:45:01;21.20;46.00
34776;DHT22;20989;52.566;13.346;2023-05-07T00:48:02;21.20;46.00
34776;DHT22;20989;52.566;13.346;2023-05-07T00:51:03;21.20;46.00
34776;DHT22;20989;52.566;13.346;2023-05-07T00:54:04;21.20;46.00
34776;DHT22;20989;52.566;13.346;2023-05-07T00:57:05;21.20;46.00
34776;DHT22;20989;52.566;13.346;2023-05-07T01:00:08;21.20;46.00
34776;DHT22;20989;52.566;13.346;2023-05-07T01:03:09;21.20;46.00
34776;DHT22;20989;52.566;13.346;2023-05-07T01:06:10;21.20;46.00
34776;DHT22;20989;52.566;13.346;2023-05-07T01:09:13;21.20;46.00
34776;DHT22;20989;52.566;13.346;2023-05-07T01:12:14;21.10;45.90
34776;DHT22;20989;52.566;13.346;2023-05-07T01:15:15;21.10;46.00
34776;DHT22;20989;52.566;13.346;2023-05-07T01:18:16;21.20;46.00
34776;DHT22;20989;52.566;13.346;2023-05-07T01:21:18;21.20;46.00
34776;DHT22;20989;52.566;13.346;2023-05-07T01:24:19;21.10;45.90
34776;DHT22;20989;52.566;13.346;2023-05-07T01:27:19;21.10;45.90
34776;DHT22;20989;52.566;13.346;2023-05-07T01:30:20;21.10;46.00
34776;DHT22;20989;52.566;13.346;2023-05-07T01:33:22;21.10;46.00
34776;DHT22;20989;52.566;13.346;2023-05-07T01:36:24;21.10;45.90
34776;DHT22;20989;52.566;13.346;2023-05-07T01:39:28;21.10;46.00
34776;DHT22;20989;52.566;13.346;2023-05-07T01:42:30;21.10;46.00
34776;DHT22;20989;52.566;13.346;2023-05-07T01:45:32;21.10;45.90
34776;DHT22;20989;52.566;13.346;2023-05-07T01:48:34;21.10;46.00
34776;DHT22;20989;52.566;13.346;2023-05-07T01:51:36;21.10;46.50
34776;DHT22;20989;52.566;13.346;2023-05-07T01:54:37;21.10;45.90
34776;DHT22;20989;52.566;13.346;2023-05-07T01:57:37;21.10;46.10
34776;DHT22;20989;52.566;13.346;2023-05-07T02:00:38;21.10;46.00
34776;DHT22;20989;52.566;13.346;2023-05-07T02:03:39;21.10;46.00
34776;DHT22;20989;52.566;13.346;2023-05-07T02:06:40;21.10;45.90
34776;DHT22;20989;52.566;13.346;2023-05-07T02:09:41;21.10;46.00
34776;DHT22;20989;52.566;13.346;2023-05-07T02:12:42;21.10;46.00
34776;DHT22;20989;52.566;13.346;2023-05-07T02:15:44;21.10;45.90
34776;DHT22;20989;52.566;13.346;2023-05-07T02:18:50;21.10;46.10
34776;DHT22;20989;52.566;13.346;2023-05-07T02:21:53;21.10;46.10
34776;DHT22;20989;52.566;13.346;2023-05-07T02:24:54;21.10;46.00
34776;DHT22;20989;52.566;13.346;2023-05-07T02:27:55;21.10;46.00
34776;DHT22;20989;52.566;13.346;2023-05-07T02:30:56;21.10;46.00
34776;DHT22;20989;52.566;13.346;2023-05-07T02:33:59;21.10;46.00
34776;DHT22;20989;52.566;13.346;2023-05-07T02:36:59;21.10;46.00
34776;DHT22;20989;52.566;13.346;2023-05-07T02:40:00;21.10;46.00
34776;DHT22;20989;52.566;13.346;2023-05-07T02:43:01;21.10;46.00
34776;DHT22;20989;52.566;13.346;2023-05-07T02:46:07;21.10;46.10
34776;DHT22;20989;52.566;13.346;2023-05-07T02:49:08;21.10;46.10
34776;DHT22;20989;52.566;13.346;2023-05-07T02:52:09;21.10;46.00
34776;DHT22;20989;52.566;13.346;2023-05-07T02:55:09;21.00;46.00
34776;DHT22;20989;52.566;13.346;2023-05-07T02:58:11;21.00;46.10
34776;DHT22;20989;52.566;13.346;2023-05-07T03:01:11;21.00;46.00
34776;DHT22;20989;52.566;13.346;2023-05-07T03:04:14;21.00;46.00
34776;DHT22;20989;52.566;13.346;2023-05-07T03:07:14;21.00;46.00
34776;DHT22;20989;52.566;13.346;2023-05-07T03:10:15;21.00;46.00
34776;DHT22;20989;52.566;13.346;2023-05-07T03:13:16;21.10;46.20
34776;DHT22;20989;52.566;13.346;2023-05-07T03:16:17;21.00;46.00
34776;DHT22;20989;52.566;13.346;2023-05-07T03:19:17;21.00;46.00
34776;DHT22;20989;52.566;13.346;2023-05-07T03:22:18;21.00;46.00
34776;DHT22;20989;52.566;13.346;2023-05-07T03:25:19;21.00;46.00
34776;DHT22;20989;52.566;13.346;2023-05-07T03:28:19;21.00;46.10
34776;DHT22;20989;52.566;13.346;2023-05-07T03:31:20;21.00;46.10
34776;DHT22;20989;52.566;13.346;2023-05-07T03:34:21;21.00;46.00
34776;DHT22;20989;52.566;13.346;2023-05-07T03:37:22;21.00;46.00
34776;DHT22;20989;52.566;13.346;2023-05-07T03:40:23;21.00;46.00
34776;DHT22;20989;52.566;13.346;2023-05-07T03:43:24;21.00;46.10
34776;DHT22;20989;52.566;13.346;2023-05-07T03:46:24;21.00;46.00
34776;DHT22;20989;52.566;13.346;2023-05-07T03:49:26;20.90;46.00
34776;DHT22;20989;52.566;13.346;2023-05-07T03:52:27;21.00;46.10
34776;DHT22;20989;52.566;13.346;2023-05-07T03:55:27;21.00;46.00
34776;DHT22;20989;52.566;13.346;2023-05-07T03:58:29;21.00;46.00
34776;DHT22;20989;52.566;13.346;2023-05-07T04:01:29;21.00;46.00
34776;DHT22;20989;52.566;13.346;2023-05-07T04:04:30;20.90;46.00
34776;DHT22;20989;52.566;13.346;2023-05-07T04:07:33;21.00;46.00
34776;DHT22;20989;52.566;13.346;2023-05-07T04:10:33;21.00;46.10
34776;DHT22;20989;52.566;13.346;2023-05-07T04:13:34;21.00;46.00
34776;DHT22;20989;52.566;13.346;2023-05-07T04:16:35;21.00;46.10
34776;DHT22;20989;52.566;13.346;2023-05-07T04:19:35;21.00;46.00
34776;DHT22;20989;52.566;13.346;2023-05-07T04:22:36;21.00;46.00
34776;DHT22;20989;52.566;13.346;2023-05-07T04:25:37;21.00;46.10
34776;DHT22;20989;52.566;13.346;2023-05-07T04:28:38;21.00;46.10
34776;DHT22;20989;52.566;13.346;2023-05-07T04:31:39;21.00;46.10
34776;DHT22;20989;52.566;13.346;2023-05-07T04:34:40;20.90;46.00
34776;DHT22;20989;52.566;13.346;2023-05-07T04:37:41;21.00;46.10
34776;DHT22;20989;52.566;13.346;2023-05-07T04:40:42;20.90;46.00
34776;DHT22;20989;52.566;13.346;2023-05-07T04:43:42;21.00;46.20
34776;DHT22;20989;52.566;13.346;2023-05-07T04:46:43;20.90;46.10
34776;DHT22;20989;52.566;13.346;2023-05-07T04:49:44;20.90;46.00
34776;DHT22;20989;52.566;13.346;2023-05-07T04:52:45;20.90;46.20
34776;DHT22;20989;52.566;13.346;2023-05-07T04:55:45;21.00;46.00
34776;DHT22;20989;52.566;13.346;2023-05-07T04:58:46;20.90;46.10
34776;DHT22;20989;52.566;13.346;2023-05-07T05:01:47;20.90;46.20
34776;DHT22;20989;52.566;13.346;2023-05-07T05:04:48;20.90;46.10
34776;DHT22;20989;52.566;13.346;2023-05-07T05:07:48;20.90;46.00
34776;DHT22;20989;52.566;13.346;2023-05-07T05:10:49;20.90;46.00
34776;DHT22;20989;52.566;13.346;2023-05-07T05:13:50;20.90;46.30
34776;DHT22;20989;52.566;13.346;2023-05-07T05:16:51;20.90;46.10
34776;DHT22;20989;52.566;13.346;2023-05-07T05:19:51;20.90;46.00
34776;DHT22;20989;52.566;13.346;2023-05-07T05:22:52;20.90;46.00
34776;DHT22;20989;52.566;13.346;2023-05-07T05:25:59;20.90;46.00
34776;DHT22;20989;52.566;13.346;2023-05-07T05:28:59;20.90;46.20
34776;DHT22;20989;52.566;13.346;2023-05-07T05:32:00;20.90;46.00
34776;DHT22;20989;52.566;13.346;2023-05-07T05:35:01;20.90;46.20
34776;DHT22;20989;52.566;13.346;2023-05-07T05:38:02;20.90;46.00
34776;DHT22;20989;52.566;13.346;2023-05-07T05:41:03;20.80;46.10
34776;DHT22;20989;52.566;13.346;2023-05-07T05:44:03;20.80;46.20
34776;DHT22;20989;52.566;13.346;2023-05-07T05:47:04;20.90;46.00
34776;DHT22;20989;52.566;13.346;2023-05-07T05:50:06;20.80;46.00
34776;DHT22;20989;52.566;13.346;2023-05-07T05:53:07;20.80;46.10
34776;DHT22;20989;52.566;13.346;2023-05-07T05:56:08;20.90;46.00
34776;DHT22;20989;52.566;13.346;2023-05-07T05:59:09;20.90;46.20
34776;DHT22;20989;52.566;13.346;2023-05-07T06:02:10;20.90;46.10
34776;DHT22;20989;52.566;13.346;2023-05-07T06:05:11;20.80;46.00
34776;DHT22;20989;52.566;13.346;2023-05-07T06:08:11;20.90;46.10
34776;DHT22;20989;52.566;13.346;2023-05-07T06:11:12;20.90;46.00
34776;DHT22;20989;52.566;13.346;2023-05-07T06:14:13;20.90;46.00
34776;DHT22;20989;52.566;13.346;2023-05-07T06:17:13;20.90;46.10
34776;DHT22;20989;52.566;13.346;2023-05-07T06:20:14;20.90;46.10
34776;DHT22;20989;52.566;13.346;2023-05-07T06:23:15;20.90;46.10
34776;DHT22;20989;52.566;13.346;2023-05-07T06:26:15;20.80;46.10
34776;DHT22;20989;52.566;13.346;2023-05-07T06:29:16;20.80;46.00
34776;DHT22;20989;52.566;13.346;2023-05-07T06:32:17;20.80;46.10
34776;DHT22;20989;52.566;13.346;2023-05-07T06:35:18;20.90;46.20
34776;DHT22;20989;52.566;13.346;2023-05-07T06:38:19;20.80;46.10
34776;DHT22;20989;52.566;13.346;2023-05-07T06:41:19;20.90;46.10
34776;DHT22;20989;52.566;13.346;2023-05-07T06:44:20;20.80;46.10
34776;DHT22;20989;52.566;13.346;2023-05-07T06:47:21;20.90;46.10
34776;DHT22;20989;52.566;13.346;2023-05-07T06:50:22;20.80;46.20
34776;DHT22;20989;52.566;13.346;2023-05-07T06:53:23;20.80;46.00
34776;DHT22;20989;52.566;13.346;2023-05-07T06:56:24;20.80;46.10
34776;DHT22;20989;52.566;13.346;2023-05-07T06:59:25;20.80;46.10
34776;DHT22;20989;52.566;13.346;2023-05-07T07:02:26;20.80;46.00
34776;DHT22;20989;52.566;13.346;2023-05-07T07:05:26;20.80;46.30
34776;DHT22;20989;52.566;13.346;2023-05-07T07:08:27;20.80;46.20
34776;DHT22;20989;52.566;13.346;2023-05-07T07:11:28;20.80;46.10
34776;DHT22;20989;52.566;13.346;2023-05-07T07:14:28;20.90;46.20
34776;DHT22;20989;52.566;13.346;2023-05-07T07:17:29;20.80;46.00
34776;DHT22;20989;52.566;13.346;2023-05-07T07:20:30;20.80;46.10
34776;DHT22;20989;52.566;13.346;2023-05-07T07:23:30;20.80;46.00
34776;DHT22;20989;52.566;13.346;2023-05-07T07:26:31;20.80;46.10
34776;DHT22;20989;52.566;13.346;2023-05-07T07:29:32;20.80;46.10
34776;DHT22;20989;52.566;13.346;2023-05-07T07:32:32;20.80;46.10
34776;DHT22;20989;52.566;13.346;2023-05-07T07:35:34;20.80;46.20
34776;DHT22;20989;52.566;13.346;2023-05-07T07:38:34;20.80;46.50
34776;DHT22;20989;52.566;13.346;2023-05-07T07:41:35;20.80;46.40
34776;DHT22;20989;52.566;13.346;2023-05-07T07:44:36;20.80;46.20
34776;DHT22;20989;52.566;13.346;2023-05-07T07:47:37;20.80;46.10
34776;DHT22;20989;52.566;13.346;2023-05-07T07:50:38;20.80;46.00
34776;DHT22;20989;52.566;13.346;2023-05-07T07:53:38;20.80;46.20
34776;DHT22;20989;52.566;13.346;2023-05-07T07:56:39;20.80;46.10
34776;DHT22;20989;52.566;13.346;2023-05-07T07:59:40;20.80;46.20
34776;DHT22;20989;52.566;13.346;2023-05-07T08:02:42;20.80;46.10
34776;DHT22;20989;52.566;13.346;2023-05-07T08:05:43;20.80;46.00
34776;DHT22;20989;52.566;13.346;2023-05-07T08:08:44;20.80;46.20
34776;DHT22;20989;52.566;13.346;2023-05-07T08:11:44;20.80;46.10
34776;DHT22;20989;52.566;13.346;2023-05-07T08:14:45;20.80;46.20
34776;DHT22;20989;52.566;13.346;2023-05-07T08:17:46;20.80;46.10
34776;DHT22;20989;52.566;13.346;2023-05-07T08:20:46;20.80;46.30
34776;DHT22;20989;52.566;13.346;2023-05-07T08:23:47;20.80;46.10
34776;DHT22;20989;52.566;13.346;2023-05-07T08:26:49;20.80;46.10
34776;DHT22;20989;52.566;13.346;2023-05-07T08:29:50;20.80;46.10
34776;DHT22;20989;52.566;13.346;2023-05-07T08:32:50;20.80;46.20
34776;DHT22;20989;52.566;13.346;2023-05-07T08:35:51;20.80;46.10
34776;DHT22;20989;52.566;13.346;2023-05-07T08:38:52;20.80;46.10
34776;DHT22;20989;52.566;13.346;2023-05-07T08:41:55;20.80;46.10
34776;DHT22;20989;52.566;13.346;2023-05-07T08:44:57;20.80;46.10
34776;DHT22;20989;52.566;13.346;2023-05-07T08:48:02;20.80;46.20
34776;DHT22;20989;52.566;13.346;2023-05-07T08:51:03;20.80;46.60
34776;DHT22;20989;52.566;13.346;2023-05-07T08:54:04;20.80;46.50
34776;DHT22;20989;52.566;13.346;2023-05-07T08:57:05;20.80;45.90
34776;DHT22;20989;52.566;13.346;2023-05-07T09:00:07;20.80;44.80
34776;DHT22;20989;52.566;13.346;2023-05-07T09:03:08;20.80;45.00
34776;DHT22;20989;52.566;13.346;2023-05-07T09:06:09;20.80;44.40
34776;DHT22;20989;52.566;13.346;2023-05-07T09:09:14;20.90;44.30
34776;DHT22;20989;52.566;13.346;2023-05-07T09:12:15;20.90;44.20
34776;DHT22;20989;52.566;13.346;2023-05-07T09:15:15;20.90;44.10
34776;DHT22;20989;52.566;13.346;2023-05-07T09:18:16;20.90;43.70
34776;DHT22;20989;52.566;13.346;2023-05-07T09:21:18;20.90;44.00
34776;DHT22;20989;52.566;13.346;2023-05-07T09:24:19;20.90;43.50
34776;DHT22;20989;52.566;13.346;2023-05-07T09:27:20;20.90;43.40
34776;DHT22;20989;52.566;13.346;2023-05-07T09:30:20;20.90;43.70
34776;DHT22;20989;52.566;13.346;2023-05-07T09:33:21;20.90;44.00
34776;DHT22;20989;52.566;13.346;2023-05-07T09:36:22;20.90;43.40
34776;DHT22;20989;52.566;13.346;2023-05-07T09:39:26;20.80;43.20
34776;DHT22;20989;52.566;13.346;2023-05-07T09:42:26;20.90;43.70
34776;DHT22;20989;52.566;13.346;2023-05-07T09:45:28;20.90;43.50
34776;DHT22;20989;52.566;13.346;2023-05-07T09:48:30;20.80;43.40
34776;DHT22;20989;52.566;13.346;2023-05-07T09:51:41;20.80;43.00
34776;DHT22;20989;52.566;13.346;2023-05-07T09:54:43;20.90;42.80
34776;DHT22;20989;52.566;13.346;2023-05-07T09:57:49;20.90;43.40
34776;DHT22;20989;52.566;13.346;2023-05-07T10:00:51;21.00;43.50
34776;DHT22;20989;52.566;13.346;2023-05-07T10:03:53;21.10;43.60
34776;DHT22;20989;52.566;13.346;2023-05-07T10:06:54;21.10;43.10
34776;DHT22;20989;52.566;13.346;2023-05-07T10:09:56;21.20;43.40
34776;DHT22;20989;52.566;13.346;2023-05-07T10:12:58;21.10;43.60
34776;DHT22;20989;52.566;13.346;2023-05-07T10:15:59;21.10;44.20
34776;DHT22;20989;52.566;13.346;2023-05-07T10:19:05;21.10;44.20
34776;DHT22;20989;52.566;13.346;2023-05-07T10:22:06;21.00;43.90
34776;DHT22;20989;52.566;13.346;2023-05-07T10:25:18;21.00;44.10
34776;DHT22;20989;52.566;13.346;2023-05-07T10:28:22;21.00;44.10
34776;DHT22;20989;52.566;13.346;2023-05-07T10:34:45;21.00;44.20
34776;DHT22;20989;52.566;13.346;2023-05-07T10:37:48;21.00;44.40
34776;DHT22;20989;52.566;13.346;2023-05-07T10:40:50;21.00;44.20
34776;DHT22;20989;52.566;13.346;2023-05-07T10:43:51;21.10;44.30
34776;DHT22;20989;52.566;13.346;2023-05-07T10:47:10;21.00;44.40
34776;DHT22;20989;52.566;13.346;2023-05-07T11:06:15;21.00;44.30
34776;DHT22;20989;52.566;13.346;2023-05-07T11:09:16;21.10;44.60
34776;DHT22;20989;52.566;13.346;2023-05-07T11:12:45;21.10;44.40
34776;DHT22;20989;52.566;13.346;2023-05-07T11:15:40;21.10;44.50
34776;DHT22;20989;52.566;13.346;2023-05-07T11:18:53;21.10;44.40
34776;DHT22;20989;52.566;13.346;2023-05-07T11:21:53;21.00;44.40
34776;DHT22;20989;52.566;13.346;2023-05-07T11:24:54;21.00;44.50
34776;DHT22;20989;52.566;13.346;2023-05-07T11:27:55;21.10;44.60
34776;DHT22;20989;52.566;13.346;2023-05-07T11:30:58;21.10;44.60
34776;DHT22;20989;52.566;13.346;2023-05-07T11:33:59;21.10;44.60
34776;DHT22;20989;52.566;13.346;2023-05-07T11:37:00;21.10;44.50
34776;DHT22;20989;52.566;13.346;2023-05-07T11:40:06;21.10;44.40
34776;DHT22;20989;52.566;13.346;2023-05-07T11:43:11;21.10;44.50
34776;DHT22;20989;52.566;13.346;2023-05-07T11:46:12;21.10;44.60
34776;DHT22;20989;52.566;13.346;2023-05-07T11:49:14;21.10;44.60
34776;DHT22;20989;52.566;13.346;2023-05-07T11:52:17;21.10;44.50
34776;DHT22;20989;52.566;13.346;2023-05-07T11:55:18;21.00;44.60
34776;DHT22;20989;52.566;13.346;2023-05-07T11:58:24;21.10;44.60
34776;DHT22;20989;52.566;13.346;2023-05-07T12:01:24;21.10;44.60
34776;DHT22;20989;52.566;13.346;2023-05-07T12:04:25;21.10;44.60
34776;DHT22;20989;52.566;13.346;2023-05-07T12:07:26;21.10;44.90
34776;DHT22;20989;52.566;13.346;2023-05-07T12:10:26;21.10;44.70
34776;DHT22;20989;52.566;13.346;2023-05-07T12:13:27;21.10;44.70
34776;DHT22;20989;52.566;13.346;2023-05-07T12:16:28;21.10;44.70
34776;DHT22;20989;52.566;13.346;2023-05-07T12:19:30;21.10;44.90
34776;DHT22;20989;52.566;13.346;2023-05-07T12:22:31;21.20;44.90
34776;DHT22;20989;52.566;13.346;2023-05-07T12:25:35;21.10;44.90
34776;DHT22;20989;52.566;13.346;2023-05-07T12:28:39;21.20;44.80
34776;DHT22;20989;52.566;13.346;2023-05-07T12:31:43;21.10;44.90
34776;DHT22;20989;52.566;13.346;2023-05-07T12:34:44;21.20;45.00
34776;DHT22;20989;52.566;13.346;2023-05-07T12:37:55;21.10;44.80
34776;DHT22;20989;52.566;13.346;2023-05-07T12:40:56;21.10;44.90
34776;DHT22;20989;52.566;13.346;2023-05-07T12:43:57;21.20;44.90
34776;DHT22;20989;52.566;13.346;2023-05-07T12:47:00;21.20;44.90
34776;DHT22;20989;52.566;13.346;2023-05-07T12:50:02;21.10;44.90
34776;DHT22;20989;52.566;13.346;2023-05-07T12:53:04;21.20;44.70
34776;DHT22;20989;52.566;13.346;2023-05-07T12:56:08;21.20;44.90
34776;DHT22;20989;52.566;13.346;2023-05-07T12:59:09;21.20;44.90
34776;DHT22;20989;52.566;13.346;2023-05-07T13:02:10;21.10;44.90
34776;DHT22;20989;52.566;13.346;2023-05-07T13:05:10;21.20;44.90
34776;DHT22;20989;52.566;13.346;2023-05-07T13:08:11;21.20;45.00
34776;DHT22;20989;52.566;13.346;2023-05-07T13:11:12;21.20;44.90
34776;DHT22;20989;52.566;13.346;2023-05-07T13:14:13;21.20;44.90
34776;DHT22;20989;52.566;13.346;2023-05-07T13:17:14;21.20;44.90
34776;DHT22;20989;52.566;13.346;2023-05-07T13:20:14;21.20;45.10
34776;DHT22;20989;52.566;13.346;2023-05-07T13:23:16;21.20;44.90
34776;DHT22;20989;52.566;13.346;2023-05-07T13:26:16;21.20;44.90
34776;DHT22;20989;52.566;13.346;2023-05-07T13:29:17;21.20;44.90
34776;DHT22;20989;52.566;13.346;2023-05-07T13:32:18;21.20;45.00
34776;DHT22;20989;52.566;13.346;2023-05-07T13:35:18;21.20;45.00
34776;DHT22;20989;52.566;13.346;2023-05-07T13:38:19;21.10;45.00
34776;DHT22;20989;52.566;13.346;2023-05-07T13:41:20;21.20;45.10
34776;DHT22;20989;52.566;13.346;2023-05-07T13:44:20;21.20;44.90
34776;DHT22;20989;52.566;13.346;2023-05-07T13:47:21;21.20;45.00
34776;DHT22;20989;52.566;13.346;2023-05-07T13:50:22;21.20;45.00
34776;DHT22;20989;52.566;13.346;2023-05-07T13:53:23;21.20;44.90
34776;DHT22;20989;52.566;13.346;2023-05-07T13:56:23;21.20;44.90
34776;DHT22;20989;52.566;13.346;2023-05-07T13:59:24;21.20;45.10
34776;DHT22;20989;52.566;13.346;2023-05-07T14:02:25;21.30;44.70
34776;DHT22;20989;52.566;13.346;2023-05-07T14:05:26;21.40;44.80
34776;DHT22;20989;52.566;13.346;2023-05-07T14:08:29;21.40;44.80
34776;DHT22;20989;52.566;13.346;2023-05-07T14:11:30;21.40;44.80
34776;DHT22;20989;52.566;13.346;2023-05-07T14:14:31;21.40;44.90
34776;DHT22;20989;52.566;13.346;2023-05-07T14:17:32;21.40;45.10
34776;DHT22;20989;52.566;13.346;2023-05-07T14:20:33;21.40;45.00
34776;DHT22;20989;52.566;13.346;2023-05-07T14:23:36;21.50;45.40
34776;DHT22;20989;52.566;13.346;2023-05-07T14:26:37;21.50;45.10
34776;DHT22;20989;52.566;13.346;2023-05-07T14:29:38;21.50;45.10
34776;DHT22;20989;52.566;13.346;2023-05-07T14:32:39;21.50;45.20
34776;DHT22;20989;52.566;13.346;2023-05-07T14:35:39;21.50;45.20
34776;DHT22;20989;52.566;13.346;2023-05-07T14:38:40;21.50;45.20
34776;DHT22;20989;52.566;13.346;2023-05-07T14:41:41;21.50;45.00
34776;DHT22;20989;52.566;13.346;2023-05-07T14:44:41;21.50;45.00
34776;DHT22;20989;52.566;13.346;2023-05-07T14:47:42;21.50;45.40
34776;DHT22;20989;52.566;13.346;2023-05-07T14:50:43;21.60;45.00
34776;DHT22;20989;52.566;13.346;2023-05-07T14:53:43;21.60;45.00
34776;DHT22;20989;52.566;13.346;2023-05-07T14:56:45;21.60;45.00
34776;DHT22;20989;52.566;13.346;2023-05-07T14:59:45;21.60;45.10
34776;DHT22;20989;52.566;13.346;2023-05-07T15:02:47;21.70;44.90
34776;DHT22;20989;52.566;13.346;2023-05-07T15:05:48;21.70;44.80
34776;DHT22;20989;52.566;13.346;2023-05-07T15:08:51;21.80;44.80
34776;DHT22;20989;52.566;13.346;2023-05-07T15:11:51;21.80;44.80
34776;DHT22;20989;52.566;13.346;2023-05-07T15:14:52;21.80;44.80
34776;DHT22;20989;52.566;13.346;2023-05-07T15:17:54;21.90;44.80
34776;DHT22;20989;52.566;13.346;2023-05-07T15:20:55;21.80;44.80
34776;DHT22;20989;52.566;13.346;2023-05-07T15:23:57;21.80;44.80
34776;DHT22;20989;52.566;13.346;2023-05-07T15:26:57;21.90;44.80
34776;DHT22;20989;52.566;13.346;2023-05-07T15:29:58;21.90;44.80
34776;DHT22;20989;52.566;13.346;2023-05-07T15:33:01;21.90;44.80
34776;DHT22;20989;52.566;13.346;2023-05-07T15:36:01;21.90;44.80
34776;DHT22;20989;52.566;13.346;2023-05-07T15:39:03;21.90;44.80
34776;DHT22;20989;52.566;13.346;2023-05-07T15:42:04;22.00;44.70
34776;DHT22;20989;52.566;13.346;2023-05-07T15:45:06;22.10;44.60
34776;DHT22;20989;52.566;13.346;2023-05-07T15:48:07;22.10;44.70
34776;DHT22;20989;52.566;13.346;2023-05-07T15:51:08;22.00;45.10
34776;DHT22;20989;52.566;13.346;2023-05-07T15:54:10;22.00;44.90
34776;DHT22;20989;52.566;13.346;2023-05-07T15:57:10;22.00;44.90
34776;DHT22;20989;52.566;13.346;2023-05-07T16:00:12;22.00;44.90
34776;DHT22;20989;52.566;13.346;2023-05-07T16:03:13;22.00;45.00
34776;DHT22;20989;52.566;13.346;2023-05-07T16:06:14;21.90;44.90
34776;DHT22;20989;52.566;13.346;2023-05-07T16:09:15;22.00;45.00
34776;DHT22;20989;52.566;13.346;2023-05-07T16:12:16;22.10;44.80
34776;DHT22;20989;52.566;13.346;2023-05-07T16:15:17;22.10;44.70
34776;DHT22;20989;52.566;13.346;2023-05-07T16:18:18;22.00;44.70
34776;DHT22;20989;52.566;13.346;2023-05-07T16:21:19;22.00;44.70
34776;DHT22;20989;52.566;13.346;2023-05-07T16:24:19;22.00;44.90
34776;DHT22;20989;52.566;13.346;2023-05-07T16:27:20;22.10;44.90
34776;DHT22;20989;52.566;13.346;2023-05-07T16:30:21;22.00;44.90
34776;DHT22;20989;52.566;13.346;2023-05-07T16:33:22;22.00;44.80
34776;DHT22;20989;52.566;13.346;2023-05-07T16:36:22;22.00;44.90
34776;DHT22;20989;52.566;13.346;2023-05-07T16:39:26;22.00;44.90
34776;DHT22;20989;52.566;13.346;2023-05-07T16:42:27;22.00;44.90
34776;DHT22;20989;52.566;13.346;2023-05-07T16:45:28;22.00;44.90
34776;DHT22;20989;52.566;13.346;2023-05-07T16:48:28;22.00;44.90
34776;DHT22;20989;52.566;13.346;2023-05-07T16:51:29;22.00;44.90
34776;DHT22;20989;52.566;13.346;2023-05-07T16:54:31;22.10;44.90
34776;DHT22;20989;52.566;13.346;2023-05-07T16:57:31;22.10;45.10
34776;DHT22;20989;52.566;13.346;2023-05-07T17:00:32;22.10;44.90
34776;DHT22;20989;52.566;13.346;2023-05-07T17:03:33;22.20;45.00
34776;DHT22;20989;52.566;13.346;2023-05-07T17:06:34;22.20;45.00
34776;DHT22;20989;52.566;13.346;2023-05-07T17:09:34;22.10;44.80
34776;DHT22;20989;52.566;13.346;2023-05-07T17:12:35;22.10;45.00
34776;DHT22;20989;52.566;13.346;2023-05-07T17:15:37;22.10;45.00
34776;DHT22;20989;52.566;13.346;2023-05-07T17:18:40;22.00;45.00
34776;DHT22;20989;52.566;13.346;2023-05-07T17:21:41;22.10;45.20
34776;DHT22;20989;52.566;13.346;2023-05-07T17:24:41;22.10;45.00
34776;DHT22;20989;52.566;13.346;2023-05-07T17:27:42;22.00;44.90
34776;DHT22;20989;52.566;13.346;2023-05-07T17:30:43;22.00;45.00
34776;DHT22;20989;52.566;13.346;2023-05-07T17:33:45;22.10;45.00
34776;DHT22;20989;52.566;13.346;2023-05-07T17:36:46;22.10;45.40
34776;DHT22;20989;52.566;13.346;2023-05-07T17:39:47;22.10;45.20
34776;DHT22;20989;52.566;13.346;2023-05-07T17:42:49;22.10;45.10
34776;DHT22;20989;52.566;13.346;2023-05-07T17:45:50;22.20;45.00
34776;DHT22;20989;52.566;13.346;2023-05-07T17:48:50;22.20;44.90
34776;DHT22;20989;52.566;13.346;2023-05-07T17:51:51;22.20;44.90
34776;DHT22;20989;52.566;13.346;2023-05-07T17:54:52;22.20;45.00
34776;DHT22;20989;52.566;13.346;2023-05-07T17:57:53;22.20;44.80
34776;DHT22;20989;52.566;13.346;2023-05-07T18:00:53;22.30;44.90
34776;DHT22;20989;52.566;13.346;2023-05-07T18:03:57;22.30;44.80
34776;DHT22;20989;52.566;13.346;2023-05-07T18:06:57;22.20;44.90
34776;DHT22;20989;52.566;13.346;2023-05-07T18:09:59;22.20;44.90
34776;DHT22;20989;52.566;13.346;2023-05-07T18:13:00;22.20;45.40
34776;DHT22;20989;52.566;13.346;2023-05-07T18:16:00;22.10;45.00
34776;DHT22;20989;52.566;13.346;2023-05-07T18:19:01;22.10;45.00
34776;DHT22;20989;52.566;13.346;2023-05-07T18:22:02;22.10;45.10
34776;DHT22;20989;52.566;13.346;2023-05-07T18:25:03;22.10;45.10
34776;DHT22;20989;52.566;13.346;2023-05-07T18:28:04;22.10;45.10
34776;DHT22;20989;52.566;13.346;2023-05-07T18:31:05;22.10;45.00
34776;DHT22;20989;52.566;13.346;2023-05-07T18:34:06;22.10;45.10
34776;DHT22;20989;52.566;13.346;2023-05-07T18:37:06;22.20;45.10
34776;DHT22;20989;52.566;13.346;2023-05-07T18:40:07;22.10;45.10
34776;DHT22;20989;52.566;13.346;2023-05-07T18:43:09;22.10;45.10
34776;DHT22;20989;52.566;13.346;2023-05-07T18:46:10;22.10;45.20
34776;DHT22;20989;52.566;13.346;2023-05-07T18:49:11;22.10;45.10
34776;DHT22;20989;52.566;13.346;2023-05-07T18:52:12;22.10;45.20
34776;DHT22;20989;52.566;13.346;2023-05-07T18:55:15;22.20;45.20
34776;DHT22;20989;52.566;13.346;2023-05-07T18:58:16;22.10;45.10
34776;DHT22;20989;52.566;13.346;2023-05-07T19:01:19;22.10;45.10
34776;DHT22;20989;52.566;13.346;2023-05-07T19:04:19;22.10;45.10
34776;DHT22;20989;52.566;13.346;2023-05-07T19:07:20;22.10;45.10